VTCC/CNX METAR and TAF weather

Enter ICAO airport designator
Station Type Date Time Source
VTCC METAR 2020/07/11 23:30 UTC NOAA

VTCC 112330Z 00000KT 9999 SCT035 26/23 Q1008 NOSIG


Station Type Date Time Source
VTCC Decoded METAR 2020/07/11 23:30 UTC NOAA

Chiang Mai, Thailand (VTCC) 18-47N 098-59E 314M
Jul 11, 2020 - 07:30 PM EDT / 2020.07.11 2330 UTC
Wind: Calm:0
Visibility: greater than 7 mile(s):0
Sky conditions: partly cloudy
Temperature: 78 F (26 C)
Dew Point: 73 F (23 C)
Relative Humidity: 83%
Pressure (altimeter): 29.77 in. Hg (1008 hPa)
ob: VTCC 112330Z 00000KT 9999 SCT035 26/23 Q1008 NOSIG
cycle: 23

Station Type Date Time Source
VTCC TAF 2020/07/11 18:36 UTC NOAA

TAF VTCC 111700Z 1118/1224 22005KT 9999 FEW035
TEMPO 1209/1213 22015G30KT 4000 TSRA FEW025CB BKN035

Example: see airport list